sensor_id;sensor_type;location;lat;lon;timestamp;P1;durP1;ratioP1;P2;durP2;ratioP2
12601;SDS011;30282;16.436;99.370;2023-10-08T00:01:08;12.10;;;4.00;;
12601;SDS011;30282;16.436;99.370;2023-10-08T00:03:40;13.40;;;4.50;;
12601;SDS011;30282;16.436;99.370;2023-10-08T00:06:14;13.40;;;4.17;;
12601;SDS011;30282;16.436;99.370;2023-10-08T00:08:47;11.53;;;3.93;;
12601;SDS011;30282;16.436;99.370;2023-10-08T00:11:17;21.83;;;4.60;;
12601;SDS011;30282;16.436;99.370;2023-10-08T00:13:48;7.33;;;3.73;;
12601;SDS011;30282;16.436;99.370;2023-10-08T00:16:22;14.40;;;3.70;;
12601;SDS011;30282;16.436;99.370;2023-10-08T00:18:54;18.43;;;3.37;;
12601;SDS011;30282;16.436;99.370;2023-10-08T00:21:28;9.50;;;3.87;;
12601;SDS011;30282;16.436;99.370;2023-10-08T00:24:01;8.77;;;3.70;;
12601;SDS011;30282;16.436;99.370;2023-10-08T00:26:32;7.50;;;3.10;;
12601;SDS011;30282;16.436;99.370;2023-10-08T00:29:06;10.57;;;3.40;;
12601;SDS011;30282;16.436;99.370;2023-10-08T00:31:43;8.43;;;3.80;;
12601;SDS011;30282;16.436;99.370;2023-10-08T00:34:15;11.47;;;4.37;;
12601;SDS011;30282;16.436;99.370;2023-10-08T00:36:46;14.83;;;3.87;;
12601;SDS011;30282;16.436;99.370;2023-10-08T00:39:18;10.50;;;3.80;;
12601;SDS011;30282;16.436;99.370;2023-10-08T00:41:50;12.13;;;3.50;;
12601;SDS011;30282;16.436;99.370;2023-10-08T00:44:24;8.73;;;3.77;;
12601;SDS011;30282;16.436;99.370;2023-10-08T00:46:57;9.83;;;3.37;;
12601;SDS011;30282;16.436;99.370;2023-10-08T00:49:32;8.63;;;3.50;;
12601;SDS011;30282;16.436;99.370;2023-10-08T00:52:18;9.53;;;3.80;;
12601;SDS011;30282;16.436;99.370;2023-10-08T00:54:57;6.03;;;3.17;;
12601;SDS011;30282;16.436;99.370;2023-10-08T00:57:40;9.23;;;3.30;;
12601;SDS011;30282;16.436;99.370;2023-10-08T01:00:14;11.43;;;4.20;;
12601;SDS011;30282;16.436;99.370;2023-10-08T01:02:47;6.53;;;3.53;;
12601;SDS011;30282;16.436;99.370;2023-10-08T01:05:26;11.13;;;3.50;;
12601;SDS011;30282;16.436;99.370;2023-10-08T01:08:12;10.03;;;3.80;;
12601;SDS011;30282;16.436;99.370;2023-10-08T01:10:50;6.83;;;3.97;;
12601;SDS011;30282;16.436;99.370;2023-10-08T01:13:26;12.93;;;4.23;;
12601;SDS011;30282;16.436;99.370;2023-10-08T01:16:08;9.03;;;4.57;;
12601;SDS011;30282;16.436;99.370;2023-10-08T01:18:39;13.13;;;4.00;;
12601;SDS011;30282;16.436;99.370;2023-10-08T01:21:17;6.67;;;3.77;;
12601;SDS011;30282;16.436;99.370;2023-10-08T01:24:04;7.63;;;3.40;;
12601;SDS011;30282;16.436;99.370;2023-10-08T01:26:34;11.27;;;3.93;;
12601;SDS011;30282;16.436;99.370;2023-10-08T01:29:07;10.70;;;3.70;;
12601;SDS011;30282;16.436;99.370;2023-10-08T01:31:45;10.60;;;3.40;;
12601;SDS011;30282;16.436;99.370;2023-10-08T01:34:18;6.10;;;3.60;;
12601;SDS011;30282;16.436;99.370;2023-10-08T01:36:53;7.60;;;3.67;;
12601;SDS011;30282;16.436;99.370;2023-10-08T01:39:29;10.00;;;3.70;;
12601;SDS011;30282;16.436;99.370;2023-10-08T01:41:59;6.50;;;3.27;;
12601;SDS011;30282;16.436;99.370;2023-10-08T01:44:31;10.30;;;3.80;;
12601;SDS011;30282;16.436;99.370;2023-10-08T01:47:00;9.60;;;4.10;;
12601;SDS011;30282;16.436;99.370;2023-10-08T01:49:30;17.27;;;3.70;;
12601;SDS011;30282;16.436;99.370;2023-10-08T01:52:00;9.70;;;3.30;;
12601;SDS011;30282;16.436;99.370;2023-10-08T01:54:35;11.00;;;3.73;;
12601;SDS011;30282;16.436;99.370;2023-10-08T01:57:04;9.13;;;3.30;;
12601;SDS011;30282;16.436;99.370;2023-10-08T01:59:35;9.50;;;3.30;;
12601;SDS011;30282;16.436;99.370;2023-10-08T02:02:05;8.03;;;3.60;;
12601;SDS011;30282;16.436;99.370;2023-10-08T02:04:35;8.33;;;3.00;;
12601;SDS011;30282;16.436;99.370;2023-10-08T02:07:05;9.40;;;3.00;;
12601;SDS011;30282;16.436;99.370;2023-10-08T02:09:40;25.27;;;3.33;;
12601;SDS011;30282;16.436;99.370;2023-10-08T02:12:10;6.80;;;3.00;;
12601;SDS011;30282;16.436;99.370;2023-10-08T02:14:40;10.20;;;2.70;;
12601;SDS011;30282;16.436;99.370;2023-10-08T02:17:10;9.33;;;2.80;;
12601;SDS011;30282;16.436;99.370;2023-10-08T02:19:40;5.60;;;2.47;;
12601;SDS011;30282;16.436;99.370;2023-10-08T02:22:10;9.90;;;2.80;;
12601;SDS011;30282;16.436;99.370;2023-10-08T02:24:41;6.63;;;2.17;;
12601;SDS011;30282;16.436;99.370;2023-10-08T02:27:10;4.63;;;2.60;;
12601;SDS011;30282;16.436;99.370;2023-10-08T02:29:41;7.40;;;2.53;;
12601;SDS011;30282;16.436;99.370;2023-10-08T02:32:10;6.87;;;2.80;;
12601;SDS011;30282;16.436;99.370;2023-10-08T02:34:40;5.70;;;2.40;;
12601;SDS011;30282;16.436;99.370;2023-10-08T02:37:09;6.23;;;2.60;;
12601;SDS011;30282;16.436;99.370;2023-10-08T02:39:38;15.53;;;2.83;;
12601;SDS011;30282;16.436;99.370;2023-10-08T02:42:10;5.80;;;2.20;;
12601;SDS011;30282;16.436;99.370;2023-10-08T02:44:40;7.80;;;2.60;;
12601;SDS011;30282;16.436;99.370;2023-10-08T02:47:10;7.80;;;2.43;;
12601;SDS011;30282;16.436;99.370;2023-10-08T02:49:42;12.00;;;3.30;;
12601;SDS011;30282;16.436;99.370;2023-10-08T02:52:18;5.10;;;2.70;;
12601;SDS011;30282;16.436;99.370;2023-10-08T02:54:49;7.27;;;2.70;;
12601;SDS011;30282;16.436;99.370;2023-10-08T02:57:22;6.30;;;2.30;;
12601;SDS011;30282;16.436;99.370;2023-10-08T02:59:55;7.40;;;3.30;;
12601;SDS011;30282;16.436;99.370;2023-10-08T03:02:24;10.23;;;3.00;;
12601;SDS011;30282;16.436;99.370;2023-10-08T03:04:54;10.00;;;3.03;;
12601;SDS011;30282;16.436;99.370;2023-10-08T03:07:24;5.03;;;2.60;;
12601;SDS011;30282;16.436;99.370;2023-10-08T03:09:59;6.20;;;2.43;;
12601;SDS011;30282;16.436;99.370;2023-10-08T03:12:32;5.17;;;2.60;;
12601;SDS011;30282;16.436;99.370;2023-10-08T03:15:02;7.73;;;2.50;;
12601;SDS011;30282;16.436;99.370;2023-10-08T03:17:40;5.97;;;2.80;;
12601;SDS011;30282;16.436;99.370;2023-10-08T03:20:16;7.00;;;2.43;;
12601;SDS011;30282;16.436;99.370;2023-10-08T03:23:08;5.10;;;2.83;;
12601;SDS011;30282;16.436;99.370;2023-10-08T03:26:00;5.57;;;2.17;;
12601;SDS011;30282;16.436;99.370;2023-10-08T03:28:36;11.03;;;3.20;;
12601;SDS011;30282;16.436;99.370;2023-10-08T03:31:07;6.07;;;2.50;;
12601;SDS011;30282;16.436;99.370;2023-10-08T03:33:43;4.70;;;2.03;;
12601;SDS011;30282;16.436;99.370;2023-10-08T03:36:15;7.00;;;2.23;;
12601;SDS011;30282;16.436;99.370;2023-10-08T03:38:59;4.53;;;2.23;;
12601;SDS011;30282;16.436;99.370;2023-10-08T03:41:40;4.20;;;2.00;;
12601;SDS011;30282;16.436;99.370;2023-10-08T03:44:17;8.30;;;2.73;;
12601;SDS011;30282;16.436;99.370;2023-10-08T03:46:47;7.10;;;2.07;;
12601;SDS011;30282;16.436;99.370;2023-10-08T03:49:18;5.53;;;2.20;;
12601;SDS011;30282;16.436;99.370;2023-10-08T03:51:53;10.23;;;2.13;;
12601;SDS011;30282;16.436;99.370;2023-10-08T03:54:23;5.67;;;2.07;;
12601;SDS011;30282;16.436;99.370;2023-10-08T03:57:02;5.40;;;2.30;;
12601;SDS011;30282;16.436;99.370;2023-10-08T03:59:39;6.17;;;2.00;;
12601;SDS011;30282;16.436;99.370;2023-10-08T04:02:08;7.70;;;1.87;;
12601;SDS011;30282;16.436;99.370;2023-10-08T04:04:40;7.60;;;2.07;;
12601;SDS011;30282;16.436;99.370;2023-10-08T04:07:22;6.83;;;2.40;;
12601;SDS011;30282;16.436;99.370;2023-10-08T04:09:55;4.47;;;2.47;;
12601;SDS011;30282;16.436;99.370;2023-10-08T04:12:54;4.90;;;2.20;;
12601;SDS011;30282;16.436;99.370;2023-10-08T04:15:24;4.17;;;2.00;;
12601;SDS011;30282;16.436;99.370;2023-10-08T04:17:56;5.53;;;1.87;;
12601;SDS011;30282;16.436;99.370;2023-10-08T04:20:28;6.27;;;1.90;;
12601;SDS011;30282;16.436;99.370;2023-10-08T04:23:04;5.10;;;2.10;;
12601;SDS011;30282;16.436;99.370;2023-10-08T04:25:39;6.23;;;1.77;;
12601;SDS011;30282;16.436;99.370;2023-10-08T04:28:11;5.70;;;2.57;;
12601;SDS011;30282;16.436;99.370;2023-10-08T04:30:43;11.10;;;2.57;;
12601;SDS011;30282;16.436;99.370;2023-10-08T04:33:16;10.10;;;2.67;;
12601;SDS011;30282;16.436;99.370;2023-10-08T04:35:46;5.50;;;2.30;;
12601;SDS011;30282;16.436;99.370;2023-10-08T04:38:20;5.33;;;2.57;;
12601;SDS011;30282;16.436;99.370;2023-10-08T04:40:52;6.40;;;2.50;;
12601;SDS011;30282;16.436;99.370;2023-10-08T04:43:29;4.93;;;2.27;;
12601;SDS011;30282;16.436;99.370;2023-10-08T04:46:02;6.90;;;2.47;;
12601;SDS011;30282;16.436;99.370;2023-10-08T04:48:44;8.80;;;2.83;;
12601;SDS011;30282;16.436;99.370;2023-10-08T04:51:15;6.43;;;2.57;;
12601;SDS011;30282;16.436;99.370;2023-10-08T04:53:47;5.57;;;2.53;;
12601;SDS011;30282;16.436;99.370;2023-10-08T04:56:17;6.10;;;2.50;;
12601;SDS011;30282;16.436;99.370;2023-10-08T04:58:50;7.57;;;2.77;;
12601;SDS011;30282;16.436;99.370;2023-10-08T05:01:20;7.80;;;2.80;;
12601;SDS011;30282;16.436;99.370;2023-10-08T05:03:54;6.00;;;2.83;;
12601;SDS011;30282;16.436;99.370;2023-10-08T05:07:08;10.32;;;3.35;;
12601;SDS011;30282;16.436;99.370;2023-10-08T05:10:06;7.70;;;3.43;;
12601;SDS011;30282;16.436;99.370;2023-10-08T05:12:56;8.57;;;3.53;;
12601;SDS011;30282;16.436;99.370;2023-10-08T05:15:41;6.50;;;3.30;;
12601;SDS011;30282;16.436;99.370;2023-10-08T05:18:32;7.40;;;3.60;;
12601;SDS011;30282;16.436;99.370;2023-10-08T05:21:17;11.87;;;2.80;;
12601;SDS011;30282;16.436;99.370;2023-10-08T05:24:02;6.53;;;2.63;;
12601;SDS011;30282;16.436;99.370;2023-10-08T05:26:39;4.93;;;2.73;;
12601;SDS011;30282;16.436;99.370;2023-10-08T05:29:25;11.43;;;4.20;;
12601;SDS011;30282;16.436;99.370;2023-10-08T05:32:10;5.60;;;3.27;;
12601;SDS011;30282;16.436;99.370;2023-10-08T05:35:05;6.27;;;3.60;;
12601;SDS011;30282;16.436;99.370;2023-10-08T05:37:51;6.70;;;3.10;;
12601;SDS011;30282;16.436;99.370;2023-10-08T05:40:41;10.43;;;3.50;;
12601;SDS011;30282;16.436;99.370;2023-10-08T05:43:27;6.83;;;3.90;;
12601;SDS011;30282;16.436;99.370;2023-10-08T05:46:11;7.27;;;3.70;;
12601;SDS011;30282;16.436;99.370;2023-10-08T05:49:00;10.90;;;4.00;;
12601;SDS011;30282;16.436;99.370;2023-10-08T05:51:49;7.30;;;3.30;;
12601;SDS011;30282;16.436;99.370;2023-10-08T05:54:37;7.83;;;4.20;;
12601;SDS011;30282;16.436;99.370;2023-10-08T05:57:25;22.20;;;5.87;;
12601;SDS011;30282;16.436;99.370;2023-10-08T06:00:05;31.10;;;6.70;;
12601;SDS011;30282;16.436;99.370;2023-10-08T06:02:55;18.40;;;5.30;;
12601;SDS011;30282;16.436;99.370;2023-10-08T06:05:36;24.63;;;5.77;;
12601;SDS011;30282;16.436;99.370;2023-10-08T06:08:13;24.83;;;8.90;;
12601;SDS011;30282;16.436;99.370;2023-10-08T06:10:47;51.67;;;8.73;;
12601;SDS011;30282;16.436;99.370;2023-10-08T06:13:28;16.87;;;5.70;;
12601;SDS011;30282;16.436;99.370;2023-10-08T06:16:10;21.40;;;7.07;;
12601;SDS011;30282;16.436;99.370;2023-10-08T06:18:57;24.97;;;6.77;;
12601;SDS011;30282;16.436;99.370;2023-10-08T06:21:25;15.23;;;7.07;;
12601;SDS011;30282;16.436;99.370;2023-10-08T06:23:55;21.37;;;8.20;;
12601;SDS011;30282;16.436;99.370;2023-10-08T06:26:25;12.50;;;5.37;;
12601;SDS011;30282;16.436;99.370;2023-10-08T06:29:01;16.53;;;7.80;;
12601;SDS011;30282;16.436;99.370;2023-10-08T06:31:45;14.73;;;7.67;;
12601;SDS011;30282;16.436;99.370;2023-10-08T06:34:17;12.03;;;5.30;;
12601;SDS011;30282;16.436;99.370;2023-10-08T06:36:48;10.30;;;4.63;;
12601;SDS011;30282;16.436;99.370;2023-10-08T06:39:20;10.37;;;4.80;;
12601;SDS011;30282;16.436;99.370;2023-10-08T06:41:52;9.50;;;6.17;;
12601;SDS011;30282;16.436;99.370;2023-10-08T06:44:26;10.47;;;7.33;;
12601;SDS011;30282;16.436;99.370;2023-10-08T06:46:58;14.70;;;8.20;;
12601;SDS011;30282;16.436;99.370;2023-10-08T06:49:35;12.43;;;7.60;;
12601;SDS011;30282;16.436;99.370;2023-10-08T06:52:06;10.90;;;6.43;;
12601;SDS011;30282;16.436;99.370;2023-10-08T06:54:39;10.17;;;6.20;;
12601;SDS011;30282;16.436;99.370;2023-10-08T06:57:09;10.27;;;6.60;;
12601;SDS011;30282;16.436;99.370;2023-10-08T06:59:41;7.73;;;5.80;;
12601;SDS011;30282;16.436;99.370;2023-10-08T07:02:11;13.50;;;6.30;;
12601;SDS011;30282;16.436;99.370;2023-10-08T07:04:44;15.53;;;5.70;;
12601;SDS011;30282;16.436;99.370;2023-10-08T07:07:14;12.33;;;6.00;;
12601;SDS011;30282;16.436;99.370;2023-10-08T07:09:44;9.63;;;5.23;;
12601;SDS011;30282;16.436;99.370;2023-10-08T07:12:17;9.60;;;4.80;;
12601;SDS011;30282;16.436;99.370;2023-10-08T07:14:52;9.00;;;5.00;;
12601;SDS011;30282;16.436;99.370;2023-10-08T07:17:22;10.67;;;5.13;;
12601;SDS011;30282;16.436;99.370;2023-10-08T07:19:53;10.10;;;5.10;;
12601;SDS011;30282;16.436;99.370;2023-10-08T07:22:23;7.63;;;5.40;;
12601;SDS011;30282;16.436;99.370;2023-10-08T07:24:54;8.60;;;5.80;;
12601;SDS011;30282;16.436;99.370;2023-10-08T07:27:25;11.90;;;6.67;;
12601;SDS011;30282;16.436;99.370;2023-10-08T07:29:59;9.60;;;6.53;;
12601;SDS011;30282;16.436;99.370;2023-10-08T07:32:36;9.20;;;6.43;;
12601;SDS011;30282;16.436;99.370;2023-10-08T07:35:11;9.57;;;6.90;;
12601;SDS011;30282;16.436;99.370;2023-10-08T07:37:50;9.37;;;6.43;;
12601;SDS011;30282;16.436;99.370;2023-10-08T07:40:20;10.17;;;6.50;;
12601;SDS011;30282;16.436;99.370;2023-10-08T07:42:54;8.47;;;5.77;;
12601;SDS011;30282;16.436;99.370;2023-10-08T07:45:35;9.13;;;6.07;;
12601;SDS011;30282;16.436;99.370;2023-10-08T07:48:05;10.20;;;5.97;;
12601;SDS011;30282;16.436;99.370;2023-10-08T07:50:35;9.70;;;5.60;;
12601;SDS011;30282;16.436;99.370;2023-10-08T07:53:11;8.87;;;5.53;;
12601;SDS011;30282;16.436;99.370;2023-10-08T07:55:45;8.20;;;5.60;;
12601;SDS011;30282;16.436;99.370;2023-10-08T07:58:15;8.60;;;5.80;;
12601;SDS011;30282;16.436;99.370;2023-10-08T08:00:47;7.27;;;5.70;;
12601;SDS011;30282;16.436;99.370;2023-10-08T08:03:20;12.00;;;6.10;;
12601;SDS011;30282;16.436;99.370;2023-10-08T08:05:50;9.57;;;6.23;;
12601;SDS011;30282;16.436;99.370;2023-10-08T08:08:20;9.37;;;5.93;;
12601;SDS011;30282;16.436;99.370;2023-10-08T08:10:53;9.80;;;5.80;;
12601;SDS011;30282;16.436;99.370;2023-10-08T08:13:26;11.00;;;6.83;;
12601;SDS011;30282;16.436;99.370;2023-10-08T08:15:58;12.07;;;5.70;;
12601;SDS011;30282;16.436;99.370;2023-10-08T08:18:38;8.87;;;5.93;;
12601;SDS011;30282;16.436;99.370;2023-10-08T08:21:09;11.70;;;7.30;;
12601;SDS011;30282;16.436;99.370;2023-10-08T08:23:41;10.20;;;6.93;;
12601;SDS011;30282;16.436;99.370;2023-10-08T08:26:15;12.73;;;7.47;;
12601;SDS011;30282;16.436;99.370;2023-10-08T08:28:55;13.00;;;9.67;;
12601;SDS011;30282;16.436;99.370;2023-10-08T08:31:27;10.77;;;8.70;;
12601;SDS011;30282;16.436;99.370;2023-10-08T08:34:01;10.50;;;8.37;;
12601;SDS011;30282;16.436;99.370;2023-10-08T08:36:36;11.60;;;8.20;;
12601;SDS011;30282;16.436;99.370;2023-10-08T08:39:11;11.40;;;8.37;;
12601;SDS011;30282;16.436;99.370;2023-10-08T08:41:53;12.63;;;7.70;;
12601;SDS011;30282;16.436;99.370;2023-10-08T08:44:27;10.60;;;8.60;;
12601;SDS011;30282;16.436;99.370;2023-10-08T08:47:00;15.10;;;10.20;;
12601;SDS011;30282;16.436;99.370;2023-10-08T08:49:32;12.70;;;8.47;;
12601;SDS011;30282;16.436;99.370;2023-10-08T08:52:03;12.57;;;7.80;;
12601;SDS011;30282;16.436;99.370;2023-10-08T08:54:33;11.23;;;7.33;;
12601;SDS011;30282;16.436;99.370;2023-10-08T08:57:06;13.73;;;7.83;;
12601;SDS011;30282;16.436;99.370;2023-10-08T08:59:40;16.23;;;8.80;;
12601;SDS011;30282;16.436;99.370;2023-10-08T09:02:14;11.80;;;9.30;;
12601;SDS011;30282;16.436;99.370;2023-10-08T09:04:44;11.27;;;9.07;;
12601;SDS011;30282;16.436;99.370;2023-10-08T09:07:15;17.07;;;9.43;;
12601;SDS011;30282;16.436;99.370;2023-10-08T09:09:49;11.37;;;9.07;;
12601;SDS011;30282;16.436;99.370;2023-10-08T09:12:26;18.37;;;9.00;;
12601;SDS011;30282;16.436;99.370;2023-10-08T09:15:00;17.13;;;10.00;;
12601;SDS011;30282;16.436;99.370;2023-10-08T09:17:32;14.20;;;9.07;;
12601;SDS011;30282;16.436;99.370;2023-10-08T09:20:02;11.73;;;9.43;;
12601;SDS011;30282;16.436;99.370;2023-10-08T09:22:32;18.97;;;8.97;;
12601;SDS011;30282;16.436;99.370;2023-10-08T09:25:02;13.80;;;9.60;;
12601;SDS011;30282;16.436;99.370;2023-10-08T09:27:33;15.37;;;8.67;;
12601;SDS011;30282;16.436;99.370;2023-10-08T09:30:04;15.37;;;9.43;;
12601;SDS011;30282;16.436;99.370;2023-10-08T09:32:36;17.13;;;14.60;;
12601;SDS011;30282;16.436;99.370;2023-10-08T09:35:11;19.77;;;13.73;;
12601;SDS011;30282;16.436;99.370;2023-10-08T09:37:41;14.03;;;10.37;;
12601;SDS011;30282;16.436;99.370;2023-10-08T09:40:13;17.90;;;11.23;;
12601;SDS011;30282;16.436;99.370;2023-10-08T09:42:47;13.27;;;10.10;;
12601;SDS011;30282;16.436;99.370;2023-10-08T09:45:17;16.40;;;10.37;;
12601;SDS011;30282;16.436;99.370;2023-10-08T09:47:50;16.43;;;10.20;;
12601;SDS011;30282;16.436;99.370;2023-10-08T09:50:25;13.90;;;9.60;;
12601;SDS011;30282;16.436;99.370;2023-10-08T09:53:00;17.27;;;9.63;;
12601;SDS011;30282;16.436;99.370;2023-10-08T09:55:41;13.43;;;8.80;;
12601;SDS011;30282;16.436;99.370;2023-10-08T09:58:14;15.73;;;9.70;;
12601;SDS011;30282;16.436;99.370;2023-10-08T10:00:44;13.43;;;10.40;;
12601;SDS011;30282;16.436;99.370;2023-10-08T10:03:19;18.80;;;10.23;;
12601;SDS011;30282;16.436;99.370;2023-10-08T10:05:51;9.70;;;7.83;;
12601;SDS011;30282;16.436;99.370;2023-10-08T10:08:24;14.50;;;9.60;;
12601;SDS011;30282;16.436;99.370;2023-10-08T10:11:01;18.30;;;9.60;;
12601;SDS011;30282;16.436;99.370;2023-10-08T10:13:34;13.93;;;8.60;;
12601;SDS011;30282;16.436;99.370;2023-10-08T10:16:06;12.47;;;9.50;;
12601;SDS011;30282;16.436;99.370;2023-10-08T10:18:43;14.83;;;9.47;;
12601;SDS011;30282;16.436;99.370;2023-10-08T10:21:30;15.00;;;10.20;;
12601;SDS011;30282;16.436;99.370;2023-10-08T10:24:00;13.87;;;9.50;;
12601;SDS011;30282;16.436;99.370;2023-10-08T10:26:49;16.43;;;9.93;;
12601;SDS011;30282;16.436;99.370;2023-10-08T10:29:22;15.63;;;9.93;;
12601;SDS011;30282;16.436;99.370;2023-10-08T10:31:58;15.90;;;9.87;;
12601;SDS011;30282;16.436;99.370;2023-10-08T10:34:32;15.77;;;11.60;;
12601;SDS011;30282;16.436;99.370;2023-10-08T10:37:07;19.60;;;13.77;;
12601;SDS011;30282;16.436;99.370;2023-10-08T10:39:50;15.50;;;11.40;;
12601;SDS011;30282;16.436;99.370;2023-10-08T10:42:22;18.30;;;9.90;;
12601;SDS011;30282;16.436;99.370;2023-10-08T10:44:54;19.17;;;9.63;;
12601;SDS011;30282;16.436;99.370;2023-10-08T10:47:24;15.07;;;9.90;;
12601;SDS011;30282;16.436;99.370;2023-10-08T10:49:54;14.13;;;10.37;;
12601;SDS011;30282;16.436;99.370;2023-10-08T10:53:00;16.70;;;10.77;;
12601;SDS011;30282;16.436;99.370;2023-10-08T10:55:37;11.40;;;10.00;;
12601;SDS011;30282;16.436;99.370;2023-10-08T10:58:13;11.67;;;9.87;;
12601;SDS011;30282;16.436;99.370;2023-10-08T11:00:50;14.77;;;9.80;;
12601;SDS011;30282;16.436;99.370;2023-10-08T11:03:25;20.33;;;10.80;;
12601;SDS011;30282;16.436;99.370;2023-10-08T11:06:02;15.00;;;10.70;;
12601;SDS011;30282;16.436;99.370;2023-10-08T11:08:43;14.27;;;10.37;;
12601;SDS011;30282;16.436;99.370;2023-10-08T11:11:12;17.07;;;11.00;;
12601;SDS011;30282;16.436;99.370;2023-10-08T11:13:44;18.90;;;10.63;;
12601;SDS011;30282;16.436;99.370;2023-10-08T11:16:22;20.43;;;12.67;;
12601;SDS011;30282;16.436;99.370;2023-10-08T11:18:52;16.37;;;11.53;;
12601;SDS011;30282;16.436;99.370;2023-10-08T11:21:23;20.20;;;12.60;;
12601;SDS011;30282;16.436;99.370;2023-10-08T11:23:59;25.23;;;13.20;;
12601;SDS011;30282;16.436;99.370;2023-10-08T11:26:35;19.23;;;12.40;;
12601;SDS011;30282;16.436;99.370;2023-10-08T11:29:17;15.30;;;12.00;;
12601;SDS011;30282;16.436;99.370;2023-10-08T11:31:51;19.87;;;11.53;;
12601;SDS011;30282;16.436;99.370;2023-10-08T11:34:21;23.73;;;12.37;;
12601;SDS011;30282;16.436;99.370;2023-10-08T11:37:05;17.23;;;11.50;;
12601;SDS011;30282;16.436;99.370;2023-10-08T11:39:47;19.27;;;12.33;;
12601;SDS011;30282;16.436;99.370;2023-10-08T11:42:18;20.07;;;13.67;;
12601;SDS011;30282;16.436;99.370;2023-10-08T11:45:06;17.27;;;12.10;;
12601;SDS011;30282;16.436;99.370;2023-10-08T11:47:45;25.63;;;12.70;;
12601;SDS011;30282;16.436;99.370;2023-10-08T11:50:15;19.07;;;12.40;;
12601;SDS011;30282;16.436;99.370;2023-10-08T11:52:45;21.60;;;12.17;;
12601;SDS011;30282;16.436;99.370;2023-10-08T11:55:17;18.43;;;12.13;;
12601;SDS011;30282;16.436;99.370;2023-10-08T11:57:47;17.77;;;11.27;;
12601;SDS011;30282;16.436;99.370;2023-10-08T12:00:18;60.97;;;12.80;;
12601;SDS011;30282;16.436;99.370;2023-10-08T12:02:51;19.97;;;12.90;;
12601;SDS011;30282;16.436;99.370;2023-10-08T12:05:22;15.00;;;11.20;;
12601;SDS011;30282;16.436;99.370;2023-10-08T12:07:52;13.60;;;11.40;;
12601;SDS011;30282;16.436;99.370;2023-10-08T12:10:25;16.50;;;10.93;;
12601;SDS011;30282;16.436;99.370;2023-10-08T12:12:57;16.50;;;12.03;;
12601;SDS011;30282;16.436;99.370;2023-10-08T12:15:31;18.83;;;12.40;;
12601;SDS011;30282;16.436;99.370;2023-10-08T12:18:04;17.70;;;11.80;;
12601;SDS011;30282;16.436;99.370;2023-10-08T12:20:41;17.10;;;10.80;;
12601;SDS011;30282;16.436;99.370;2023-10-08T12:23:12;21.47;;;11.30;;
12601;SDS011;30282;16.436;99.370;2023-10-08T12:25:52;23.00;;;12.33;;
12601;SDS011;30282;16.436;99.370;2023-10-08T12:28:23;21.60;;;12.50;;
12601;SDS011;30282;16.436;99.370;2023-10-08T12:30:53;23.20;;;11.93;;
12601;SDS011;30282;16.436;99.370;2023-10-08T12:33:23;18.93;;;13.27;;
12601;SDS011;30282;16.436;99.370;2023-10-08T12:35:55;23.30;;;13.67;;
12601;SDS011;30282;16.436;99.370;2023-10-08T12:38:36;21.60;;;13.87;;
12601;SDS011;30282;16.436;99.370;2023-10-08T12:41:09;16.63;;;13.40;;
12601;SDS011;30282;16.436;99.370;2023-10-08T12:43:42;24.20;;;13.57;;
12601;SDS011;30282;16.436;99.370;2023-10-08T12:46:12;18.57;;;12.67;;
12601;SDS011;30282;16.436;99.370;2023-10-08T12:48:49;15.60;;;12.93;;
12601;SDS011;30282;16.436;99.370;2023-10-08T12:51:20;24.33;;;14.20;;
12601;SDS011;30282;16.436;99.370;2023-10-08T12:53:51;20.07;;;13.77;;
12601;SDS011;30282;16.436;99.370;2023-10-08T12:56:31;18.33;;;13.93;;
12601;SDS011;30282;16.436;99.370;2023-10-08T12:59:05;18.93;;;13.00;;
12601;SDS011;30282;16.436;99.370;2023-10-08T13:01:41;24.00;;;14.03;;
12601;SDS011;30282;16.436;99.370;2023-10-08T13:04:10;26.67;;;15.67;;
12601;SDS011;30282;16.436;99.370;2023-10-08T13:06:47;26.50;;;16.17;;
12601;SDS011;30282;16.436;99.370;2023-10-08T13:09:17;24.83;;;16.60;;
12601;SDS011;30282;16.436;99.370;2023-10-08T13:11:49;18.50;;;14.13;;
12601;SDS011;30282;16.436;99.370;2023-10-08T13:14:18;21.13;;;15.57;;
12601;SDS011;30282;16.436;99.370;2023-10-08T13:16:48;18.23;;;15.03;;
12601;SDS011;30282;16.436;99.370;2023-10-08T13:19:19;22.37;;;15.30;;
12601;SDS011;30282;16.436;99.370;2023-10-08T13:21:52;24.43;;;14.37;;
12601;SDS011;30282;16.436;99.370;2023-10-08T13:24:21;19.07;;;13.87;;
12601;SDS011;30282;16.436;99.370;2023-10-08T13:26:56;22.63;;;14.97;;
12601;SDS011;30282;16.436;99.370;2023-10-08T13:29:25;19.73;;;15.13;;
12601;SDS011;30282;16.436;99.370;2023-10-08T13:31:58;20.93;;;15.80;;
12601;SDS011;30282;16.436;99.370;2023-10-08T13:34:29;40.57;;;14.53;;
12601;SDS011;30282;16.436;99.370;2023-10-08T13:36:59;21.93;;;15.67;;
12601;SDS011;30282;16.436;99.370;2023-10-08T13:39:29;16.23;;;13.53;;
12601;SDS011;30282;16.436;99.370;2023-10-08T13:42:02;18.87;;;13.97;;
12601;SDS011;30282;16.436;99.370;2023-10-08T13:44:32;24.40;;;13.53;;
12601;SDS011;30282;16.436;99.370;2023-10-08T13:47:02;20.67;;;14.60;;
12601;SDS011;30282;16.436;99.370;2023-10-08T13:49:49;23.03;;;14.47;;
12601;SDS011;30282;16.436;99.370;2023-10-08T13:52:24;24.07;;;16.47;;
12601;SDS011;30282;16.436;99.370;2023-10-08T13:54:55;21.93;;;14.20;;
12601;SDS011;30282;16.436;99.370;2023-10-08T13:57:27;25.20;;;14.13;;
12601;SDS011;30282;16.436;99.370;2023-10-08T13:59:58;19.20;;;14.40;;
12601;SDS011;30282;16.436;99.370;2023-10-08T14:02:37;20.70;;;15.40;;
12601;SDS011;30282;16.436;99.370;2023-10-08T14:05:07;28.57;;;15.67;;
12601;SDS011;30282;16.436;99.370;2023-10-08T14:07:41;20.60;;;15.23;;
12601;SDS011;30282;16.436;99.370;2023-10-08T14:10:12;20.57;;;14.70;;
12601;SDS011;30282;16.436;99.370;2023-10-08T14:12:46;24.03;;;14.77;;
12601;SDS011;30282;16.436;99.370;2023-10-08T14:15:16;22.90;;;15.00;;
12601;SDS011;30282;16.436;99.370;2023-10-08T14:17:48;25.47;;;15.07;;
12601;SDS011;30282;16.436;99.370;2023-10-08T14:20:21;23.23;;;16.23;;
12601;SDS011;30282;16.436;99.370;2023-10-08T14:22:57;21.60;;;14.53;;
12601;SDS011;30282;16.436;99.370;2023-10-08T14:25:32;22.30;;;15.73;;
12601;SDS011;30282;16.436;99.370;2023-10-08T14:28:10;40.57;;;16.87;;
12601;SDS011;30282;16.436;99.370;2023-10-08T14:30:48;23.63;;;16.70;;
12601;SDS011;30282;16.436;99.370;2023-10-08T14:33:21;20.43;;;15.63;;
12601;SDS011;30282;16.436;99.370;2023-10-08T14:35:57;25.20;;;16.90;;
12601;SDS011;30282;16.436;99.370;2023-10-08T14:38:43;24.33;;;17.33;;
12601;SDS011;30282;16.436;99.370;2023-10-08T14:41:29;25.50;;;17.77;;
12601;SDS011;30282;16.436;99.370;2023-10-08T14:44:17;32.13;;;17.47;;
12601;SDS011;30282;16.436;99.370;2023-10-08T14:46:47;25.10;;;17.33;;
12601;SDS011;30282;16.436;99.370;2023-10-08T14:49:16;27.40;;;18.93;;
12601;SDS011;30282;16.436;99.370;2023-10-08T14:51:48;28.03;;;18.60;;
12601;SDS011;30282;16.436;99.370;2023-10-08T14:54:19;32.63;;;20.73;;
12601;SDS011;30282;16.436;99.370;2023-10-08T14:56:49;26.23;;;19.93;;
12601;SDS011;30282;16.436;99.370;2023-10-08T14:59:21;22.83;;;18.83;;
12601;SDS011;30282;16.436;99.370;2023-10-08T15:01:54;29.67;;;19.03;;
12601;SDS011;30282;16.436;99.370;2023-10-08T15:04:24;27.53;;;18.90;;